Flight Track Log - Related Links

Times and Time Zones

All times are in EDT time to prevent confusion due to time zone crossing. See the SWA888 flight status page for this flight to view local times or setup timezone preferences in your user account.

Time Position Orientation Groundspeed Altitude Reporting Facility
EDT Latitude Longitude Course Direction KTS MPH feet Rate Location/Type
Mon 05:50:52 PM 33.4333 -112.0333 270° West 156 180 1,900  Level Phoenix TRACON
Mon 05:52:10 PM 33.4333 -112.1167 287° West 218 251 5,100 2,806 Climbing Phoenix TRACON
Mon 05:53:11 PM 33.4500 -112.1833 40° Northeast 234 269 8,400 2,952 Climbing Phoenix TRACON
Mon 05:55:19 PM 33.5706 -112.0611 79° East 276 318 14,400 2,968 Climbing Albuquerque Center
Mon 05:56:19 PM 33.5897 -111.9400 78° East 309 356 17,700 3,100 Climbing Albuquerque Center
Mon 05:57:19 PM 33.6111 -111.8142 80° East 362 417 20,600 1,650 Climbing Albuquerque Center
Mon 05:58:19 PM 33.6306 -111.6831 80° East 386 444 21,000 400 Climbing Albuquerque Center
Mon 05:59:19 PM 33.6497 -111.5517 79° East 398 458 21,400 1,200 Climbing Albuquerque Center
Mon 06:00:19 PM 33.6686 -111.4331 80° East 403 464 23,400 2,150 Climbing Albuquerque Center
Mon 06:01:19 PM 33.6900 -111.2917 69° East 414 476 25,700 2,300 Climbing Albuquerque Center
Mon 06:02:19 PM 33.7386 -111.1417 67° East 432 497 28,000 1,800 Climbing Albuquerque Center
Mon 06:03:19 PM 33.7844 -111.0139 67° East 443 510 29,300 1,500 Climbing Albuquerque Center
Mon 06:04:19 PM 33.8367 -110.8636 66° East 456 525 31,000 1,300 Climbing Albuquerque Center
Mon 06:05:19 PM 33.8911 -110.7158 67° East 468 539 31,900 1,000 Climbing Albuquerque Center
Mon 06:06:19 PM 33.9431 -110.5678 68° East 474 545 33,000 550 Climbing Albuquerque Center
Mon 06:07:19 PM 33.9817 -110.4517 68° East 474 545 33,000  Level Albuquerque Center
Mon 06:08:31 PM 34.0536 -110.2411 66° East 474 545 33,000  Level Albuquerque Center
Mon 06:09:31 PM 34.1072 -110.0925 68° East 469 540 33,000  Level Albuquerque Center
Mon 06:10:31 PM 34.1631 -109.9236 68° East 476 548 33,000  Level Albuquerque Center
Mon 06:11:31 PM 34.2122 -109.7744 68° East 489 563 33,000 -150 Level Albuquerque Center
Mon 06:12:31 PM 34.2586 -109.6378 68° East 489 563 32,700 -1,000 Descending Albuquerque Center
Mon 06:13:31 PM 34.3161 -109.4683 67° East 489 563 31,000 -850 Descending Albuquerque Center
Mon 06:14:31 PM 34.3708 -109.3111 68° East 495 570 31,000  Level Albuquerque Center
Mon 06:15:31 PM 34.4211 -109.1589 77° East 490 564 31,000  Level Albuquerque Center
Mon 06:16:31 PM 34.4506 -109.0008 78° East 485 558 31,000  Level Albuquerque Center
Mon 06:17:31 PM 34.4778 -108.8400 78° East 479 551 31,000  Level Albuquerque Center
Mon 06:18:31 PM 34.5047 -108.6817 79° East 479 551 31,000  Level Albuquerque Center
Mon 06:19:31 PM 34.5314 -108.5208 79° East 479 551 31,000  Level Albuquerque Center
Mon 06:20:31 PM 34.5558 -108.3647 78° East 479 551 31,000 -150 Level Albuquerque Center
Mon 06:21:31 PM 34.5842 -108.2039 80° East 479 551 30,700 -1,400 Descending Albuquerque Center
Mon 06:22:31 PM 34.6058 -108.0475 78° East 479 551 28,200 -2,350 Descending Albuquerque Center
Mon 06:23:31 PM 34.6317 -107.8939 78° East 473 544 26,000 -2,200 Descending Albuquerque Center
Mon 06:24:31 PM 34.6553 -107.7600 66° East 460 529 23,800 -2,380 Descending Albuquerque Center
Mon 06:25:32 PM 34.7078 -107.6139 64° Northeast 427 491 21,200 -2,400 Descending Albuquerque Center
Mon 06:26:11 PM 34.7392 -107.5356 63° Northeast 407 468 19,800 -2,220 Descending Albuquerque Center
Mon 06:27:12 PM 34.7894 -107.4142 63° Northeast 385 443 17,500 -1,770 Descending Albuquerque Center
Mon 06:28:13 PM 34.8375 -107.3006 59° Northeast 380 437 16,200 -1,248 Descending Albuquerque Center
Mon 06:29:17 PM 34.8894 -107.1967 55° Northeast 349 402 14,900 -1,190 Descending Albuquerque Center
Mon 06:30:14 PM 34.9436 -107.1028 50° Northeast 340 391 13,800 -1,271 Descending Albuquerque Center
Mon 06:31:15 PM 35.0039 -107.0139 50° Northeast 336 387 12,400 -1,240 Descending Albuquerque Center
Mon 06:32:15 PM 35.0558 -106.9375 71° East 289 333 11,300 -793 Descending Albuquerque Center
Mon 06:33:16 PM 35.0744 -106.8714 140° Southeast 213 245 10,800 -1,082 Descending Albuquerque Center
Mon 06:34:17 PM 35.0428 -106.8386 90° East 156 180 9,100 -1,339 Descending Albuquerque Center
Mon 06:35:17 PM 35.0428 -106.7853 90° East 151 174 8,100 -887 Descending Albuquerque Center
Mon 06:36:12 PM 35.0425 -106.7372 90° East 147 169 7,400 -835 Descending Albuquerque Center
Mon 06:37:12 PM 35.0422 -106.6889 94° East 147 169 6,500 -793 Descending Albuquerque Center
Mon 06:38:13 PM 35.0397 -106.6433 94° East 136 157 5,800 -689 Descending Albuquerque Center

Login

Don't have an account? Register now (free) for customized features, flight alerts, and more!